Terminal Aerodrome Forecast
Issued by NWS

Home | Current Version | Previous Version | Text Only | Print | Product List | Glossary On
Versions: 1 2 3 4 5 6 7 8 9 10 11 12 13
000
FTUS42 KMHX 270532
TAFPGV
TAF
KPGV 270532Z 2706/2806 18005KT P6SM SCT025 BKN040
     FM271700 20010G15KT P6SM VCSH BKN040
     FM272300 19005KT P6SM SCT040
      AMD LTD TO CLD VIS AND WIND=

USA.gov is the U.S. government's official web portal to all federal, state and local government web resources and services.